Time;durP1;ratioP1;P1;durP2;ratioP2;P2;SDS_P1;SDS_P2;PMS_P1;PMS_P2;Temp;Humidity;BMP_temperature;BMP_pressure;BME280_temperature;BME280_humidity;BME280_pressure;Samples;Min_cycle;Max_cycle;Signal;HPM_P1;HPM_P2
2023/03/10 00:01:35;;;;;;;24.42;10.52;;;;;;;;;;5054543;28;20045;-85
2023/03/10 00:04:01;;;;;;;18.15;8.52;;;;;;;;;;5055440;28;20045;-82
2023/03/10 00:06:29;;;;;;;20.88;9.43;;;;;;;;;;5056820;28;20036;-85
2023/03/10 00:08:55;;;;;;;16.63;8.10;;;;;;;;;;5055441;28;20037;-82
2023/03/10 00:11:21;;;;;;;19.63;7.78;;;;;;;;;;5053633;28;20407;-75
2023/03/10 00:13:47;;;;;;;22.27;9.90;;;;;;;;;;5055019;28;20032;-75
2023/03/10 00:16:18;;;;;;;21.27;9.45;;;;;;;;;;5037137;28;20041;-84
2023/03/10 00:18:45;;;;;;;21.40;9.88;;;;;;;;;;5040622;28;20455;-85
2023/03/10 00:21:15;;;;;;;19.95;8.68;;;;;;;;;;5055039;28;20045;-87
2023/03/10 00:23:41;;;;;;;15.35;7.47;;;;;;;;;;5055289;28;20064;-84
2023/03/10 00:26:07;;;;;;;19.80;9.32;;;;;;;;;;5054886;28;20415;-86
2023/03/10 00:28:33;;;;;;;21.77;10.57;;;;;;;;;;5054400;28;20045;-77
2023/03/10 00:31:03;;;;;;;23.90;10.05;;;;;;;;;;5038807;28;20044;-76
2023/03/10 00:33:30;;;;;;;21.67;9.52;;;;;;;;;;5053019;28;20037;-84
2023/03/10 00:36:04;;;;;;;23.23;10.68;;;;;;;;;;5053401;28;20517;-77
2023/03/10 00:38:30;;;;;;;20.23;9.40;;;;;;;;;;5053255;28;20045;-84
2023/03/10 00:41:04;;;;;;;23.50;10.45;;;;;;;;;;5053379;28;20072;-76
2023/03/10 00:43:30;;;;;;;22.17;10.52;;;;;;;;;;5052778;28;20079;-76
2023/03/10 00:45:56;;;;;;;23.63;10.38;;;;;;;;;;5036655;28;20037;-77
2023/03/10 00:48:22;;;;;;;20.40;9.70;;;;;;;;;;5053839;28;20041;-77
2023/03/10 00:50:49;;;;;;;20.23;9.52;;;;;;;;;;5053133;28;20549;-77
2023/03/10 00:53:15;;;;;;;19.90;9.88;;;;;;;;;;5052834;28;20041;-83
2023/03/10 00:55:41;;;;;;;20.00;9.60;;;;;;;;;;5054929;28;20037;-76
2023/03/10 00:58:07;;;;;;;20.65;8.32;;;;;;;;;;5049718;28;20037;-84
2023/03/10 01:00:33;;;;;;;19.38;9.13;;;;;;;;;;5052454;28;20495;-81
2023/03/10 01:03:00;;;;;;;14.52;7.22;;;;;;;;;;5054085;28;20112;-76
2023/03/10 01:05:27;;;;;;;20.45;10.00;;;;;;;;;;5035763;28;20045;-75
2023/03/10 01:07:54;;;;;;;18.27;8.60;;;;;;;;;;5053916;28;20064;-77
2023/03/10 01:10:20;;;;;;;19.73;9.07;;;;;;;;;;5053408;28;20041;-75
2023/03/10 01:12:47;;;;;;;20.52;9.57;;;;;;;;;;5021852;28;20048;-77
2023/03/10 01:15:13;;;;;;;19.65;10.38;;;;;;;;;;5053931;28;20044;-83
2023/03/10 01:17:39;;;;;;;21.92;10.30;;;;;;;;;;5053270;28;20041;-84
2023/03/10 01:20:07;;;;;;;21.65;10.27;;;;;;;;;;5036452;28;20120;-84
2023/03/10 01:22:33;;;;;;;20.92;9.93;;;;;;;;;;5054229;28;20041;-84
2023/03/10 01:24:59;;;;;;;20.27;10.07;;;;;;;;;;5054432;28;20041;-85
2023/03/10 01:27:25;;;;;;;22.42;10.40;;;;;;;;;;5054488;28;20064;-84
2023/03/10 01:29:51;;;;;;;22.58;11.10;;;;;;;;;;5066787;28;20110;-85
2023/03/10 01:32:17;;;;;;;21.95;10.50;;;;;;;;;;5052986;28;20045;-83
2023/03/10 01:34:43;;;;;;;20.40;10.32;;;;;;;;;;5056955;28;20167;-85
2023/03/10 01:37:09;;;;;;;21.73;11.30;;;;;;;;;;5072692;28;20060;-78
2023/03/10 01:39:36;;;;;;;22.13;10.32;;;;;;;;;;5070865;28;20093;-78
2023/03/10 01:42:02;;;;;;;23.70;11.40;;;;;;;;;;5043980;28;20122;-77
2023/03/10 01:44:28;;;;;;;16.63;8.30;;;;;;;;;;5053735;28;20037;-77
2023/03/10 01:46:55;;;;;;;24.13;11.70;;;;;;;;;;5052485;28;20491;-77
2023/03/10 01:49:33;;;;;;;21.98;10.88;;;;;;;;;;5068207;28;20116;-78
2023/03/10 01:52:02;;;;;;;24.55;11.30;;;;;;;;;;5035332;28;20036;-85
2023/03/10 01:54:31;;;;;;;21.33;10.52;;;;;;;;;;5052200;28;20120;-78
2023/03/10 01:56:58;;;;;;;24.08;11.18;;;;;;;;;;5052110;28;20045;-84
2023/03/10 01:59:25;;;;;;;23.65;11.48;;;;;;;;;;5053023;28;20087;-84
2023/03/10 02:01:51;;;;;;;20.55;11.35;;;;;;;;;;5052223;28;20140;-83
2023/03/10 02:04:33;;;;;;;21.73;11.20;;;;;;;;;;5052770;28;20411;-77
2023/03/10 02:07:00;;;;;;;21.85;11.15;;;;;;;;;;5051775;28;20036;-77
2023/03/10 02:09:27;;;;;;;21.38;11.05;;;;;;;;;;5051363;28;20632;-77
2023/03/10 02:11:53;;;;;;;22.40;11.13;;;;;;;;;;5053575;28;20051;-82
2023/03/10 02:14:19;;;;;;;22.48;11.00;;;;;;;;;;5052434;28;20067;-83
2023/03/10 02:16:46;;;;;;;19.55;10.25;;;;;;;;;;5051527;28;20052;-77
2023/03/10 02:19:18;;;;;;;20.15;10.18;;;;;;;;;;5052385;28;20518;-78
2023/03/10 02:21:46;;;;;;;22.95;10.77;;;;;;;;;;5052357;28;20502;-82
2023/03/10 02:24:29;;;;;;;21.75;10.45;;;;;;;;;;5051567;28;20053;-77
2023/03/10 02:27:13;;;;;;;19.63;10.02;;;;;;;;;;5052528;28;20041;-78
2023/03/10 02:29:43;;;;;;;19.73;9.48;;;;;;;;;;5055402;28;20116;-78
2023/03/10 02:32:09;;;;;;;20.70;9.77;;;;;;;;;;5054606;28;20040;-78
2023/03/10 02:34:35;;;;;;;20.92;9.85;;;;;;;;;;5070703;28;20120;-78
2023/03/10 02:37:01;;;;;;;19.63;9.95;;;;;;;;;;5071012;28;20456;-78
2023/03/10 02:39:27;;;;;;;20.33;9.60;;;;;;;;;;5055519;28;20041;-82
2023/03/10 02:41:53;;;;;;;19.15;9.75;;;;;;;;;;5065400;28;20079;-77
2023/03/10 02:44:20;;;;;;;17.17;8.18;;;;;;;;;;5034908;28;20554;-83
2023/03/10 02:46:46;;;;;;;20.38;10.23;;;;;;;;;;5034851;28;20080;-77
2023/03/10 02:49:13;;;;;;;19.17;10.60;;;;;;;;;;5034528;28;20383;-79
2023/03/10 02:51:40;;;;;;;19.25;10.30;;;;;;;;;;5050496;28;20124;-77
2023/03/10 02:54:07;;;;;;;22.23;9.82;;;;;;;;;;5050688;28;20048;-78
2023/03/10 02:56:34;;;;;;;20.63;10.18;;;;;;;;;;5052749;28;20045;-78
2023/03/10 02:59:00;;;;;;;22.35;10.23;;;;;;;;;;5038584;28;20040;-77
2023/03/10 03:01:29;;;;;;;20.27;9.98;;;;;;;;;;5044003;28;20073;-78
2023/03/10 03:03:55;;;;;;;21.83;10.13;;;;;;;;;;5049879;28;20045;-78
2023/03/10 03:06:21;;;;;;;22.73;10.80;;;;;;;;;;5053705;28;20040;-78
2023/03/10 03:08:47;;;;;;;22.50;10.40;;;;;;;;;;5038513;28;20510;-77
2023/03/10 03:11:14;;;;;;;21.38;10.43;;;;;;;;;;5055859;28;20103;-77
2023/03/10 03:13:40;;;;;;;23.95;11.52;;;;;;;;;;5038026;28;20040;-78
2023/03/10 03:16:07;;;;;;;24.25;11.25;;;;;;;;;;5054508;28;20123;-77
2023/03/10 03:18:33;;;;;;;24.35;11.75;;;;;;;;;;5054864;28;20041;-83
2023/03/10 03:21:03;;;;;;;27.38;12.85;;;;;;;;;;5057152;28;20041;-83
2023/03/10 03:23:29;;;;;;;25.45;11.50;;;;;;;;;;5054617;28;20041;-78
2023/03/10 03:25:55;;;;;;;28.08;12.05;;;;;;;;;;5086156;28;20055;-83
2023/03/10 03:28:21;;;;;;;28.08;12.80;;;;;;;;;;5055783;28;20509;-84
2023/03/10 03:30:47;;;;;;;26.65;12.73;;;;;;;;;;5056807;28;20041;-83
2023/03/10 03:33:13;;;;;;;28.48;13.48;;;;;;;;;;5073792;28;20037;-78
2023/03/10 03:35:39;;;;;;;26.65;12.45;;;;;;;;;;5066137;28;20056;-79
2023/03/10 03:38:06;;;;;;;25.63;12.57;;;;;;;;;;5068930;28;20091;-85
2023/03/10 03:40:33;;;;;;;26.42;12.90;;;;;;;;;;5069111;28;20059;-83
2023/03/10 03:42:59;;;;;;;27.75;12.65;;;;;;;;;;5055362;28;20045;-84
2023/03/10 03:45:27;;;;;;;25.27;11.48;;;;;;;;;;5072727;28;20041;-86
2023/03/10 03:47:53;;;;;;;25.40;11.15;;;;;;;;;;5064834;28;20483;-85
2023/03/10 03:50:20;;;;;;;23.63;12.07;;;;;;;;;;5037954;28;20079;-77
2023/03/10 03:52:46;;;;;;;26.88;12.38;;;;;;;;;;5037519;28;20561;-79
2023/03/10 03:55:13;;;;;;;25.85;12.38;;;;;;;;;;5037596;28;20052;-78
2023/03/10 03:57:40;;;;;;;25.83;11.88;;;;;;;;;;5054582;28;20487;-85
2023/03/10 04:00:07;;;;;;;22.80;10.90;;;;;;;;;;5053333;28;20405;-79
2023/03/10 04:02:34;;;;;;;22.02;10.70;;;;;;;;;;5043809;28;20076;-78
2023/03/10 04:05:00;;;;;;;21.73;9.65;;;;;;;;;;5055735;28;20049;-83
2023/03/10 04:07:26;;;;;;;20.38;10.18;;;;;;;;;;5053518;28;20044;-78
2023/03/10 04:09:52;;;;;;;21.83;10.43;;;;;;;;;;5037448;28;20495;-84
2023/03/10 04:12:18;;;;;;;18.70;8.93;;;;;;;;;;5054815;28;20044;-83
2023/03/10 04:14:44;;;;;;;19.33;9.38;;;;;;;;;;5054762;28;20561;-85
2023/03/10 04:17:10;;;;;;;18.02;8.75;;;;;;;;;;5070689;28;20045;-79
2023/03/10 04:19:36;;;;;;;18.88;8.95;;;;;;;;;;5037998;28;20044;-87
2023/03/10 04:22:02;;;;;;;18.48;8.85;;;;;;;;;;5054390;28;20541;-78
2023/03/10 04:24:28;;;;;;;16.88;8.02;;;;;;;;;;5054031;28;20166;-78
2023/03/10 04:26:55;;;;;;;17.05;8.10;;;;;;;;;;5046685;28;20499;-83
2023/03/10 04:29:23;;;;;;;18.13;8.43;;;;;;;;;;5060070;28;20113;-82
2023/03/10 04:31:50;;;;;;;15.05;7.88;;;;;;;;;;5053680;28;20116;-78
2023/03/10 04:34:16;;;;;;;15.45;8.02;;;;;;;;;;5053448;28;20041;-84
2023/03/10 04:36:42;;;;;;;15.30;7.82;;;;;;;;;;5053134;28;20057;-84
2023/03/10 04:39:08;;;;;;;16.27;7.88;;;;;;;;;;5053149;28;20072;-85
2023/03/10 04:41:35;;;;;;;16.15;8.50;;;;;;;;;;5052840;28;20060;-78
2023/03/10 04:44:01;;;;;;;16.70;8.40;;;;;;;;;;5054400;28;20044;-77
2023/03/10 04:46:30;;;;;;;16.95;8.38;;;;;;;;;;5053233;28;20049;-77
2023/03/10 04:48:56;;;;;;;18.02;8.35;;;;;;;;;;5036164;28;20039;-78
2023/03/10 04:51:22;;;;;;;17.27;8.27;;;;;;;;;;5059746;28;20443;-77
2023/03/10 04:53:49;;;;;;;17.67;8.23;;;;;;;;;;5061296;28;20063;-81
2023/03/10 04:56:15;;;;;;;17.40;8.43;;;;;;;;;;5036293;28;20048;-84
2023/03/10 04:58:41;;;;;;;17.90;8.30;;;;;;;;;;5054060;28;20040;-83
2023/03/10 05:01:08;;;;;;;16.63;7.72;;;;;;;;;;5048500;28;20067;-83
2023/03/10 05:03:35;;;;;;;18.48;8.15;;;;;;;;;;5085299;28;20123;-82
2023/03/10 05:06:01;;;;;;;15.60;7.80;;;;;;;;;;5051643;28;20056;-77
2023/03/10 05:08:27;;;;;;;17.15;8.07;;;;;;;;;;5069286;28;20076;-82
2023/03/10 05:10:53;;;;;;;17.75;7.88;;;;;;;;;;5052585;28;20446;-77
2023/03/10 05:13:19;;;;;;;19.15;8.15;;;;;;;;;;5052578;28;20102;-80
2023/03/10 05:15:45;;;;;;;12.57;6.28;;;;;;;;;;5052239;28;20106;-77
2023/03/10 05:18:12;;;;;;;15.20;8.00;;;;;;;;;;5052610;28;20049;-81
2023/03/10 05:20:38;;;;;;;17.33;8.93;;;;;;;;;;5052071;28;20041;-77
2023/03/10 05:23:04;;;;;;;16.02;8.25;;;;;;;;;;5052444;28;20487;-81
2023/03/10 05:25:30;;;;;;;17.92;8.68;;;;;;;;;;5052359;28;20125;-80
2023/03/10 05:27:56;;;;;;;16.10;7.70;;;;;;;;;;5057271;28;20130;-78
2023/03/10 05:30:22;;;;;;;12.50;6.03;;;;;;;;;;5072387;28;20051;-82
2023/03/10 05:32:48;;;;;;;18.02;8.25;;;;;;;;;;5073049;28;20046;-81
2023/03/10 05:35:15;;;;;;;15.02;7.45;;;;;;;;;;5065252;28;20061;-80
2023/03/10 05:37:42;;;;;;;10.93;4.80;;;;;;;;;;5059461;28;20049;-76
2023/03/10 05:40:09;;;;;;;17.20;8.10;;;;;;;;;;5052640;28;20127;-80
2023/03/10 05:42:35;;;;;;;17.73;8.25;;;;;;;;;;5029890;28;20045;-80
2023/03/10 05:45:03;;;;;;;12.32;6.07;;;;;;;;;;5068521;28;20047;-77
2023/03/10 05:47:29;;;;;;;16.52;8.77;;;;;;;;;;5051963;28;20052;-77
2023/03/10 05:49:56;;;;;;;18.65;8.88;;;;;;;;;;5068778;28;20411;-82
2023/03/10 05:52:22;;;;;;;12.27;5.50;;;;;;;;;;5068634;28;20076;-77
2023/03/10 05:54:48;;;;;;;18.95;8.82;;;;;;;;;;5051739;28;20055;-78
2023/03/10 05:57:14;;;;;;;14.00;6.22;;;;;;;;;;5051908;28;20044;-78
2023/03/10 05:59:40;;;;;;;20.02;9.43;;;;;;;;;;5051574;28;20037;-76
2023/03/10 06:02:06;;;;;;;19.33;9.73;;;;;;;;;;5051591;28;20479;-77
2023/03/10 06:04:32;;;;;;;19.08;8.43;;;;;;;;;;5068409;28;20182;-80
2023/03/10 06:07:01;;;;;;;19.55;9.60;;;;;;;;;;5051371;28;20154;-80
2023/03/10 06:09:32;;;;;;;19.52;9.70;;;;;;;;;;5051525;28;20033;-81
2023/03/10 06:11:58;;;;;;;20.17;9.93;;;;;;;;;;5051383;28;20395;-77
2023/03/10 06:14:25;;;;;;;21.13;8.70;;;;;;;;;;5051767;28;20040;-79
2023/03/10 06:16:53;;;;;;;19.65;8.85;;;;;;;;;;5051398;28;20514;-79
2023/03/10 06:19:19;;;;;;;21.10;10.38;;;;;;;;;;5052911;28;20040;-80
2023/03/10 06:21:45;;;;;;;21.55;11.00;;;;;;;;;;5050875;28;20102;-78
2023/03/10 06:24:11;;;;;;;21.88;9.93;;;;;;;;;;5051610;28;20049;-81
2023/03/10 06:26:38;;;;;;;23.23;11.20;;;;;;;;;;5067978;28;20094;-81
2023/03/10 06:29:04;;;;;;;23.55;10.73;;;;;;;;;;5053966;28;20048;-80
2023/03/10 06:31:30;;;;;;;22.92;10.95;;;;;;;;;;5050961;28;20048;-78
2023/03/10 06:33:58;;;;;;;23.30;11.05;;;;;;;;;;5034611;28;20045;-81
2023/03/10 06:36:25;;;;;;;24.63;11.70;;;;;;;;;;5051107;28;20486;-80
2023/03/10 06:38:52;;;;;;;24.75;10.68;;;;;;;;;;5050925;28;20124;-80
2023/03/10 06:41:19;;;;;;;27.60;12.07;;;;;;;;;;5051170;28;20510;-78
2023/03/10 06:43:45;;;;;;;26.45;12.13;;;;;;;;;;5051002;28;20049;-77
2023/03/10 06:46:12;;;;;;;26.35;11.80;;;;;;;;;;5052352;28;20052;-78
2023/03/10 06:48:39;;;;;;;26.20;12.10;;;;;;;;;;5034399;28;20036;-77
2023/03/10 06:51:07;;;;;;;27.13;12.43;;;;;;;;;;5050677;28;20407;-77
2023/03/10 06:53:33;;;;;;;28.85;12.73;;;;;;;;;;5050898;28;20048;-80
2023/03/10 06:56:00;;;;;;;28.30;12.75;;;;;;;;;;5052214;28;20372;-78
2023/03/10 06:58:27;;;;;;;31.27;13.80;;;;;;;;;;5031138;28;20046;-78
2023/03/10 07:00:53;;;;;;;29.95;13.07;;;;;;;;;;5046525;28;20029;-78
2023/03/10 07:03:19;;;;;;;29.83;12.35;;;;;;;;;;5050662;28;20120;-77
2023/03/10 07:05:45;;;;;;;32.50;13.50;;;;;;;;;;5050948;28;20052;-79
2023/03/10 07:08:12;;;;;;;31.35;13.95;;;;;;;;;;5042868;28;20043;-80
2023/03/10 07:10:38;;;;;;;35.13;14.80;;;;;;;;;;5067797;28;20033;-81
2023/03/10 07:13:04;;;;;;;33.88;14.52;;;;;;;;;;5051687;28;20041;-78
2023/03/10 07:15:30;;;;;;;36.20;14.93;;;;;;;;;;5034355;28;20514;-77
2023/03/10 07:17:56;;;;;;;37.95;14.95;;;;;;;;;;5050671;28;20399;-77
2023/03/10 07:20:23;;;;;;;34.67;15.02;;;;;;;;;;5050819;28;20033;-78
2023/03/10 07:22:49;;;;;;;37.92;15.70;;;;;;;;;;5033599;28;20072;-77
2023/03/10 07:25:16;;;;;;;36.80;15.63;;;;;;;;;;5052171;28;20051;-81
2023/03/10 07:27:42;;;;;;;34.35;13.80;;;;;;;;;;5052290;28;20041;-77
2023/03/10 07:30:08;;;;;;;40.38;15.73;;;;;;;;;;5071844;28;20098;-78
2023/03/10 07:32:34;;;;;;;36.63;15.70;;;;;;;;;;5058375;28;20507;-80
2023/03/10 07:35:01;;;;;;;37.03;14.82;;;;;;;;;;5050869;28;20037;-79
2023/03/10 07:37:27;;;;;;;40.78;16.08;;;;;;;;;;5050422;28;20041;-78
2023/03/10 07:39:53;;;;;;;30.35;13.88;;;;;;;;;;5050416;28;20084;-75
2023/03/10 07:42:19;;;;;;;37.00;16.70;;;;;;;;;;5050495;28;20033;-77
2023/03/10 07:44:45;;;;;;;37.55;15.90;;;;;;;;;;5054045;28;20503;-77
2023/03/10 07:47:11;;;;;;;34.95;15.15;;;;;;;;;;5054474;28;20040;-77
2023/03/10 07:49:38;;;;;;;38.65;15.85;;;;;;;;;;5054856;28;20507;-78
2023/03/10 07:52:04;;;;;;;35.58;15.38;;;;;;;;;;5037387;28;20045;-77
2023/03/10 07:54:30;;;;;;;37.03;14.85;;;;;;;;;;5055555;28;20406;-77
2023/03/10 07:56:56;;;;;;;37.17;15.35;;;;;;;;;;5054996;28;20052;-78
2023/03/10 07:59:22;;;;;;;35.97;15.23;;;;;;;;;;5054129;28;20056;-77
2023/03/10 08:01:48;;;;;;;33.60;13.70;;;;;;;;;;5058983;28;20041;-80
2023/03/10 08:04:15;;;;;;;31.98;14.00;;;;;;;;;;5062269;28;20051;-78
2023/03/10 08:06:41;;;;;;;29.58;14.48;;;;;;;;;;5055158;28;20037;-80
2023/03/10 08:09:08;;;;;;;29.17;13.07;;;;;;;;;;5037296;28;20052;-80
2023/03/10 08:11:34;;;;;;;25.38;10.90;;;;;;;;;;5037226;28;20095;-79
2023/03/10 08:14:00;;;;;;;28.85;12.82;;;;;;;;;;5053527;28;20525;-82
2023/03/10 08:16:26;;;;;;;33.50;14.68;;;;;;;;;;5052255;28;20790;-80
2023/03/10 08:18:53;;;;;;;31.17;14.82;;;;;;;;;;5042490;28;20045;-77
2023/03/10 08:21:19;;;;;;;24.13;10.57;;;;;;;;;;5053518;28;20037;-77
2023/03/10 08:23:46;;;;;;;27.63;12.80;;;;;;;;;;5053526;28;20056;-79
2023/03/10 08:26:13;;;;;;;19.17;8.40;;;;;;;;;;5053402;28;20032;-76
2023/03/10 08:28:40;;;;;;;29.10;13.55;;;;;;;;;;5063475;28;20495;-79
2023/03/10 08:31:10;;;;;;;28.50;12.75;;;;;;;;;;5073427;28;20387;-81
2023/03/10 08:33:37;;;;;;;27.23;11.45;;;;;;;;;;5073489;28;20068;-77
2023/03/10 08:36:14;;;;;;;29.20;12.65;;;;;;;;;;5061125;28;20049;-78
2023/03/10 08:38:40;;;;;;;28.17;13.07;;;;;;;;;;5040266;28;20041;-79
2023/03/10 08:41:10;;;;;;;24.48;11.63;;;;;;;;;;5066377;28;20044;-77
2023/03/10 08:43:36;;;;;;;25.92;11.80;;;;;;;;;;5067512;28;20075;-77
2023/03/10 08:46:02;;;;;;;26.10;12.65;;;;;;;;;;5047936;28;20090;-77
2023/03/10 08:48:28;;;;;;;25.15;11.95;;;;;;;;;;5074819;28;20037;-79
2023/03/10 08:50:54;;;;;;;26.08;11.48;;;;;;;;;;5065031;28;20082;-78
2023/03/10 08:53:20;;;;;;;24.50;10.25;;;;;;;;;;5052715;28;20053;-77
2023/03/10 08:55:47;;;;;;;23.02;10.32;;;;;;;;;;5053119;28;20051;-81
2023/03/10 08:58:13;;;;;;;25.67;12.00;;;;;;;;;;5053047;28;20049;-80
2023/03/10 09:00:39;;;;;;;24.40;11.68;;;;;;;;;;5053406;28;20041;-77
2023/03/10 09:03:05;;;;;;;22.33;10.57;;;;;;;;;;5053104;28;20576;-79
2023/03/10 09:05:31;;;;;;;26.38;11.45;;;;;;;;;;5053329;28;20492;-78
2023/03/10 09:07:58;;;;;;;24.17;11.20;;;;;;;;;;5053383;28;20506;-79
2023/03/10 09:10:24;;;;;;;25.52;11.45;;;;;;;;;;5054290;28;20055;-80
2023/03/10 09:12:50;;;;;;;23.95;11.23;;;;;;;;;;5053304;28;20067;-80
2023/03/10 09:15:17;;;;;;;22.42;11.25;;;;;;;;;;5053152;28;20045;-80
2023/03/10 09:17:43;;;;;;;26.38;11.98;;;;;;;;;;5054252;28;20045;-79
2023/03/10 09:20:09;;;;;;;22.50;11.07;;;;;;;;;;5053032;28;20085;-78
2023/03/10 09:22:35;;;;;;;24.00;11.38;;;;;;;;;;5053678;28;20041;-78
2023/03/10 09:25:01;;;;;;;24.83;11.45;;;;;;;;;;5052689;28;20381;-78
2023/03/10 09:27:28;;;;;;;23.17;11.23;;;;;;;;;;5052164;28;20069;-77
2023/03/10 09:29:54;;;;;;;24.05;11.45;;;;;;;;;;5052379;28;20065;-78
2023/03/10 09:32:20;;;;;;;23.95;11.43;;;;;;;;;;5052140;28;20051;-78
2023/03/10 09:34:46;;;;;;;22.77;11.10;;;;;;;;;;5052262;28;20438;-80
2023/03/10 09:37:12;;;;;;;24.17;11.05;;;;;;;;;;5051993;28;20415;-77
2023/03/10 09:39:38;;;;;;;22.83;11.32;;;;;;;;;;5052207;28;20102;-80
2023/03/10 09:42:08;;;;;;;22.17;11.00;;;;;;;;;;5053689;28;20040;-80
2023/03/10 09:44:36;;;;;;;21.63;10.45;;;;;;;;;;5052236;28;20072;-80
2023/03/10 09:47:11;;;;;;;21.63;10.68;;;;;;;;;;5052135;28;20041;-80
2023/03/10 09:49:39;;;;;;;21.30;10.35;;;;;;;;;;5051954;28;20377;-77
2023/03/10 09:52:21;;;;;;;21.92;10.20;;;;;;;;;;5052065;28;20533;-80
2023/03/10 09:54:59;;;;;;;22.02;10.52;;;;;;;;;;5052244;28;20045;-79
2023/03/10 09:57:26;;;;;;;22.83;10.77;;;;;;;;;;5051443;28;20059;-80
2023/03/10 09:59:55;;;;;;;23.73;11.20;;;;;;;;;;5051940;28;20108;-80
2023/03/10 10:02:23;;;;;;;21.48;10.50;;;;;;;;;;5034744;28;20500;-77
2023/03/10 10:04:52;;;;;;;24.40;10.55;;;;;;;;;;5052669;28;20495;-78
2023/03/10 10:07:21;;;;;;;21.80;10.38;;;;;;;;;;5052133;28;20041;-77
2023/03/10 10:09:52;;;;;;;23.73;11.38;;;;;;;;;;5051684;28;20037;-78
2023/03/10 10:12:22;;;;;;;23.73;10.77;;;;;;;;;;5051568;28;20095;-80
2023/03/10 10:14:56;;;;;;;26.20;12.05;;;;;;;;;;5035266;28;20051;-77
2023/03/10 10:17:43;;;;;;;25.58;12.45;;;;;;;;;;5051075;28;20041;-82
2023/03/10 10:20:28;;;;;;;28.75;13.23;;;;;;;;;;5051440;28;20053;-78
2023/03/10 10:22:54;;;;;;;30.48;13.30;;;;;;;;;;5045914;28;20069;-77
2023/03/10 10:25:21;;;;;;;25.42;12.32;;;;;;;;;;5059681;28;20410;-77
2023/03/10 10:27:50;;;;;;;27.42;13.32;;;;;;;;;;5052632;28;20044;-77
2023/03/10 10:30:27;;;;;;;28.63;12.95;;;;;;;;;;5063524;28;20087;-82
2023/03/10 10:33:00;;;;;;;28.10;13.27;;;;;;;;;;5038947;28;20496;-77
2023/03/10 10:35:29;;;;;;;25.98;12.68;;;;;;;;;;5050823;28;20045;-77
2023/03/10 10:37:59;;;;;;;29.83;13.70;;;;;;;;;;5034693;28;20056;-78
2023/03/10 10:40:26;;;;;;;27.92;12.80;;;;;;;;;;5050995;28;20076;-81
2023/03/10 10:42:56;;;;;;;27.02;12.65;;;;;;;;;;5051310;28;20035;-77
2023/03/10 10:45:24;;;;;;;29.10;13.65;;;;;;;;;;5051037;28;20051;-80
2023/03/10 10:47:51;;;;;;;26.27;12.82;;;;;;;;;;5051285;28;20039;-81
2023/03/10 10:50:17;;;;;;;27.73;12.70;;;;;;;;;;5050623;28;20102;-78
2023/03/10 10:52:47;;;;;;;27.90;13.50;;;;;;;;;;5037120;28;20036;-81
2023/03/10 10:55:33;;;;;;;27.73;12.23;;;;;;;;;;5051298;28;20044;-77
2023/03/10 10:58:05;;;;;;;27.15;12.95;;;;;;;;;;5051109;28;20041;-76
2023/03/10 11:00:38;;;;;;;27.23;12.10;;;;;;;;;;5034258;28;20428;-78
2023/03/10 11:03:23;;;;;;;25.70;12.35;;;;;;;;;;5050513;28;20048;-77
2023/03/10 11:05:49;;;;;;;29.65;13.55;;;;;;;;;;5020792;28;20127;-78
2023/03/10 11:08:27;;;;;;;27.92;13.02;;;;;;;;;;5050726;28;20049;-81
2023/03/10 11:10:56;;;;;;;25.27;12.15;;;;;;;;;;5050767;28;20048;-77
2023/03/10 11:13:24;;;;;;;25.55;12.25;;;;;;;;;;5050773;28;20112;-80
2023/03/10 11:16:06;;;;;;;27.23;13.15;;;;;;;;;;5050812;28;20048;-81
2023/03/10 11:18:38;;;;;;;28.85;13.00;;;;;;;;;;5053737;28;20041;-81
2023/03/10 11:21:10;;;;;;;26.65;13.02;;;;;;;;;;5038504;28;20037;-77
2023/03/10 11:23:44;;;;;;;26.95;11.90;;;;;;;;;;5037919;28;20119;-77
2023/03/10 11:26:20;;;;;;;25.83;12.85;;;;;;;;;;5054625;28;20110;-82
2023/03/10 11:28:56;;;;;;;26.33;12.50;;;;;;;;;;5064553;28;20491;-84
2023/03/10 11:31:28;;;;;;;22.88;12.07;;;;;;;;;;5040960;28;20041;-78
2023/03/10 11:33:54;;;;;;;25.33;12.27;;;;;;;;;;5037972;28;20043;-84
2023/03/10 11:36:40;;;;;;;24.33;11.40;;;;;;;;;;5055698;28;20049;-84
2023/03/10 11:39:13;;;;;;;25.30;12.48;;;;;;;;;;5074265;28;20124;-85
2023/03/10 11:41:42;;;;;;;24.23;12.18;;;;;;;;;;5056666;28;20040;-83
2023/03/10 11:44:12;;;;;;;23.42;11.98;;;;;;;;;;5064538;28;20048;-80
2023/03/10 11:46:46;;;;;;;25.17;12.43;;;;;;;;;;5059905;28;20063;-82
2023/03/10 11:49:15;;;;;;;23.00;11.40;;;;;;;;;;5060176;28;20480;-79
2023/03/10 11:51:41;;;;;;;24.80;12.07;;;;;;;;;;5058496;28;20071;-78
2023/03/10 11:54:22;;;;;;;21.73;10.77;;;;;;;;;;5057132;28;20041;-79
2023/03/10 11:56:49;;;;;;;23.52;11.52;;;;;;;;;;5054221;28;20048;-85
2023/03/10 11:59:20;;;;;;;22.17;11.23;;;;;;;;;;5054475;28;20513;-81
2023/03/10 12:02:04;;;;;;;22.98;11.45;;;;;;;;;;5054851;28;20033;-86
2023/03/10 12:04:34;;;;;;;23.60;11.38;;;;;;;;;;5054432;28;20496;-88
2023/03/10 12:07:00;;;;;;;22.40;10.25;;;;;;;;;;5048541;28;20049;-84
2023/03/10 12:09:32;;;;;;;20.73;10.77;;;;;;;;;;5056550;28;20041;-86
2023/03/10 12:11:59;;;;;;;22.27;10.80;;;;;;;;;;5040625;28;20100;-83
2023/03/10 12:14:25;;;;;;;21.85;10.55;;;;;;;;;;5053323;28;20036;-83
2023/03/10 12:16:52;;;;;;;20.98;10.43;;;;;;;;;;5054060;28;20052;-83
2023/03/10 12:19:18;;;;;;;20.08;10.43;;;;;;;;;;5037361;28;20124;-83
2023/03/10 12:21:46;;;;;;;22.33;11.07;;;;;;;;;;5034013;28;20037;-82
2023/03/10 12:24:31;;;;;;;21.13;10.45;;;;;;;;;;5049116;28;20052;-82
2023/03/10 12:26:58;;;;;;;23.02;11.02;;;;;;;;;;5036997;28;20171;-83
2023/03/10 12:29:33;;;;;;;21.80;10.52;;;;;;;;;;5053602;28;20041;-82
2023/03/10 12:31:59;;;;;;;20.65;11.13;;;;;;;;;;5074909;28;20040;-82
2023/03/10 12:34:31;;;;;;;20.92;10.10;;;;;;;;;;5073533;28;20444;-80
2023/03/10 12:37:04;;;;;;;22.02;11.25;;;;;;;;;;5059979;28;20110;-80
2023/03/10 12:39:31;;;;;;;21.60;10.63;;;;;;;;;;5073532;28;20398;-81
2023/03/10 12:41:59;;;;;;;19.58;10.10;;;;;;;;;;5045291;28;20040;-81
2023/03/10 12:44:29;;;;;;;21.05;10.07;;;;;;;;;;5061423;28;20063;-84
2023/03/10 12:47:07;;;;;;;20.02;10.43;;;;;;;;;;5067626;28;20470;-86
2023/03/10 12:49:49;;;;;;;20.85;10.18;;;;;;;;;;5053370;28;20041;-86
2023/03/10 12:52:25;;;;;;;23.13;11.27;;;;;;;;;;5041550;28;20051;-82
2023/03/10 12:55:11;;;;;;;21.88;10.93;;;;;;;;;;5055240;28;20471;-85
2023/03/10 12:57:44;;;;;;;20.17;10.15;;;;;;;;;;5073835;28;20400;-83
2023/03/10 13:00:19;;;;;;;22.98;11.13;;;;;;;;;;5057485;28;20045;-84
2023/03/10 13:02:50;;;;;;;23.17;10.93;;;;;;;;;;5063666;28;20052;-85
2023/03/10 13:05:19;;;;;;;22.50;11.18;;;;;;;;;;5040932;28;20075;-84
2023/03/10 13:07:51;;;;;;;23.70;11.40;;;;;;;;;;5061069;28;20066;-81
2023/03/10 13:10:20;;;;;;;22.23;11.32;;;;;;;;;;5073012;28;20502;-80
2023/03/10 13:12:49;;;;;;;22.48;10.57;;;;;;;;;;5072380;28;20119;-81
2023/03/10 13:15:29;;;;;;;23.33;11.25;;;;;;;;;;5073069;28;20127;-81
2023/03/10 13:18:08;;;;;;;27.73;12.38;;;;;;;;;;5048635;28;20402;-80
2023/03/10 13:20:36;;;;;;;26.42;12.30;;;;;;;;;;5072184;28;20056;-81
2023/03/10 13:23:02;;;;;;;23.45;11.55;;;;;;;;;;5072518;28;20394;-81
2023/03/10 13:25:28;;;;;;;27.08;11.95;;;;;;;;;;5055957;28;20040;-81
2023/03/10 13:27:56;;;;;;;24.00;11.30;;;;;;;;;;5066490;28;20063;-81
2023/03/10 13:30:25;;;;;;;24.50;11.25;;;;;;;;;;5054097;28;20040;-81
2023/03/10 13:32:56;;;;;;;24.42;11.55;;;;;;;;;;5053419;28;20123;-81
2023/03/10 13:35:34;;;;;;;24.10;11.77;;;;;;;;;;5053835;28;20036;-82
2023/03/10 13:38:17;;;;;;;23.52;11.55;;;;;;;;;;5052356;28;20053;-82
2023/03/10 13:40:45;;;;;;;24.58;11.45;;;;;;;;;;5051444;28;20399;-81
2023/03/10 13:43:41;;;;;;;24.05;11.43;;;;;;;;;;5053272;28;20465;-82
2023/03/10 13:46:24;;;;;;;23.83;12.25;;;;;;;;;;5052077;28;20089;-83
2023/03/10 13:48:50;;;;;;;23.73;11.43;;;;;;;;;;5053099;28;20035;-81
2023/03/10 13:51:22;;;;;;;22.58;11.23;;;;;;;;;;5053370;28;20037;-84
2023/03/10 13:53:51;;;;;;;26.77;12.80;;;;;;;;;;5052086;28;20041;-84
2023/03/10 13:56:34;;;;;;;27.35;11.73;;;;;;;;;;5052166;28;20041;-84
2023/03/10 13:59:02;;;;;;;25.98;13.30;;;;;;;;;;5051830;28;20503;-80
2023/03/10 14:01:32;;;;;;;27.73;12.88;;;;;;;;;;5052937;28;20047;-78
2023/03/10 14:04:01;;;;;;;31.60;14.10;;;;;;;;;;5052996;28;20052;-79
2023/03/10 14:06:28;;;;;;;35.85;15.13;;;;;;;;;;5051608;28;20122;-80
2023/03/10 14:08:54;;;;;;;32.35;15.48;;;;;;;;;;5051329;28;20041;-80
2023/03/10 14:11:30;;;;;;;30.08;14.98;;;;;;;;;;5051709;28;20044;-80
2023/03/10 14:13:57;;;;;;;31.67;14.40;;;;;;;;;;5051369;28;20041;-80
2023/03/10 14:16:43;;;;;;;32.45;14.73;;;;;;;;;;5051751;28;20372;-84
2023/03/10 14:19:10;;;;;;;30.60;14.65;;;;;;;;;;5035131;28;20151;-78
2023/03/10 14:21:38;;;;;;;31.35;15.25;;;;;;;;;;5051607;28;20079;-79
2023/03/10 14:24:04;;;;;;;31.00;13.65;;;;;;;;;;5051483;28;20187;-78
2023/03/10 14:26:31;;;;;;;31.65;14.35;;;;;;;;;;5052515;28;20118;-78
2023/03/10 14:28:59;;;;;;;31.65;13.95;;;;;;;;;;5062346;28;20044;-82